Flight Number: EUR1558 Duration: 6:00
Departure: Gatwick Airport (EGKK) at 08:00 Distance: 2544 Nm
Arrival: Jeddah King Abdul Aziz (OEJN) at 14:00 Equipment: B777

Weather Information
404 Not Found

Not Found

The requested URL /data/observations/metar/decoded/EGKK.TXT was not found on this server.


Sunrise: 04:02 Sunset: 19:52 (UTC)

Jeddah King Abdul Aziz International Airport , Saudi Arabia (OEJN) 21-42N 039-11E 17M May 24, 2018 - 05:00 PM EDT / 2018.05.24 2100 UTC
Wind: from the N (350 degrees) at 13 MPH (11 KT):0
Visibility: greater than 7 mile(s):0 Temperature: 93 F (34 C) Heat index: 94.6 F (34.8 C):1 Dew Point: 64 F (18 C) Relative Humidity: 38% Pressure (altimeter): 29.59 in. Hg (1002 hPa)
ob: OEJN 242100Z 35011KT CAVOK 34/18 Q1002 NOSIG cycle: 21
Sunrise: 02:44 Sunset: 15:56 (UTC)

TAF:2018/05/24 18:03 TAF OEJN 241700Z 2418/2524 36014KT CAVOK BECMG 2502/2504 08008KT BECMG 2510/2512 34020KT

Previous Pireps for this route
Date Aircraft Flight time Fuel used Landing rate On time
2015-04-02B757-2006,0050000-150Charter
2015-07-13B7775.581217170Charter
2016-01-26B77705.5980338-441Yes
2016-02-17B77705.4383331-110Yes
2016-04-19B77705.24115576-176Yes
(pireps marked green are flown by you)

Route map